地図

経路データ

SID SEASON NUMBER BASIN SUBBASIN NAME ISO_TIME NATURE LAT LON WMO_WIND WMO_PRES WMO_AGENCY TRACK_TYPE DIST2LAND LANDFALL IFLAG USA_AGENCY USA_ATCF_ID USA_LAT USA_LON USA_RECORD USA_STATUS USA_WIND USA_PRES USA_SSHS USA_R34_NE USA_R34_SE USA_R34_SW USA_R34_NW USA_R50_NE USA_R50_SE USA_R50_SW USA_R50_NW USA_R64_NE USA_R64_SE USA_R64_SW USA_R64_NW USA_POCI USA_ROCI USA_RMW USA_EYE TOKYO_LAT TOKYO_LON TOKYO_GRADE TOKYO_WIND TOKYO_PRES TOKYO_R50_DIR TOKYO_R50_LONG TOKYO_R50_SHORT TOKYO_R30_DIR TOKYO_R30_LONG TOKYO_R30_SHORT TOKYO_LAND CMA_LAT CMA_LON CMA_CAT CMA_WIND CMA_PRES HKO_LAT HKO_LON HKO_CAT HKO_WIND HKO_PRES NEWDELHI_LAT NEWDELHI_LON NEWDELHI_GRADE NEWDELHI_WIND NEWDELHI_PRES NEWDELHI_CI NEWDELHI_DP NEWDELHI_POCI REUNION_LAT REUNION_LON REUNION_TYPE REUNION_WIND REUNION_PRES REUNION_TNUM REUNION_CI REUNION_RMW REUNION_R34_NE REUNION_R34_SE REUNION_R34_SW REUNION_R34_NW REUNION_R50_NE REUNION_R50_SE REUNION_R50_SW REUNION_R50_NW REUNION_R64_NE REUNION_R64_SE REUNION_R64_SW REUNION_R64_NW BOM_LAT BOM_LON BOM_TYPE BOM_WIND BOM_PRES BOM_TNUM BOM_CI BOM_RMW BOM_R34_NE BOM_R34_SE BOM_R34_SW BOM_R34_NW BOM_R50_NE BOM_R50_SE BOM_R50_SW BOM_R50_NW BOM_R64_NE BOM_R64_SE BOM_R64_SW BOM_R64_NW BOM_ROCI BOM_POCI BOM_EYE BOM_POS_METHOD BOM_PRES_METHOD NADI_LAT NADI_LON NADI_CAT NADI_WIND NADI_PRES WELLINGTON_LAT WELLINGTON_LON WELLINGTON_WIND WELLINGTON_PRES DS824_LAT DS824_LON DS824_STAGE DS824_WIND DS824_PRES TD9636_LAT TD9636_LON TD9636_STAGE TD9636_WIND TD9636_PRES TD9635_LAT TD9635_LON TD9635_WIND TD9635_PRES TD9635_ROCI NEUMANN_LAT NEUMANN_LON NEUMANN_CLASS NEUMANN_WIND NEUMANN_PRES MLC_LAT MLC_LON MLC_CLASS MLC_WIND MLC_PRES USA_GUST BOM_GUST BOM_GUST_PER REUNION_GUST REUNION_GUST_PER USA_SEAHGT USA_SEARAD_NE USA_SEARAD_SE USA_SEARAD_SW USA_SEARAD_NW STORM_SPEED STORM_DIR
1923164N07143 1923 35 WP MM NOT_NAMED 1923-06-13 10:00:00 NR 6.80000 142.600 main 1056 1047 __________O___ -1 6.80000 142.600 2 7 278
1923164N07143 1923 35 WP MM NOT_NAMED 1923-06-13 12:00:00 NR 6.83345 142.375 main 1047 1041 __________P___ -1 6.83345 142.375 2 7 278
1923164N07143 1923 35 WP MM NOT_NAMED 1923-06-13 15:00:00 NR 6.88349 142.035 main 1041 1028 __________P___ -1 6.88349 142.035 2 7 278
1923164N07143 1923 35 WP MM NOT_NAMED 1923-06-13 18:00:00 NR 6.93343 141.687 main 1028 1023 __________P___ -1 6.93343 141.687 2 7 278
1923164N07143 1923 35 WP MM NOT_NAMED 1923-06-13 21:00:00 NR 6.98336 141.325 main 1023 1019 __________P___ -1 6.98336 141.325 2 7 278
1923164N07143 1923 35 WP MM NOT_NAMED 1923-06-13 22:00:00 NR 7.00000 141.200 main 1019 1009 __________O___ -1 7.00000 141.200 2 8 278
1923164N07143 1923 35 WP MM NOT_NAMED 1923-06-14 00:00:00 NR 7.03376 140.945 main 1009 1006 __________P___ -1 7.03376 140.945 2 8 278
1923164N07143 1923 35 WP MM NOT_NAMED 1923-06-14 03:00:00 NR 7.09051 140.549 main 1007 999 __________P___ -1 7.09051 140.549 2 8 279
1923164N07143 1923 35 WP MM NOT_NAMED 1923-06-14 06:00:00 NR 7.16290 140.144 main 1008 995 __________P___ -1 7.16290 140.144 2 8 282
1923164N07143 1923 35 WP MM NOT_NAMED 1923-06-14 09:00:00 NR 7.26033 139.736 main 1000 996 __________P___ -1 7.26033 139.736 2 8 284
1923164N07143 1923 35 WP MM NOT_NAMED 1923-06-14 10:00:00 NR 7.30000 139.600 main 996 987 __________O___ -1 7.30000 139.600 2 8 287
1923164N07143 1923 35 WP MM NOT_NAMED 1923-06-14 12:00:00 NR 7.38064 139.333 main 993 985 __________P___ -1 7.38064 139.333 2 8 289
1923164N07143 1923 35 WP MM NOT_NAMED 1923-06-14 15:00:00 NR 7.52659 138.933 main 987 987 __________P___ -1 7.52659 138.933 2 9 292
1923164N07143 1923 35 WP MM NOT_NAMED 1923-06-14 18:00:00 NR 7.70531 138.533 main 994 991 __________P___ -1 7.70531 138.533 2 9 296
1923164N07143 1923 35 WP MM NOT_NAMED 1923-06-14 21:00:00 NR 7.91994 138.133 main 1002 1002 __________P___ -1 7.91994 138.133 2 9 299
1923164N07143 1923 35 WP MM NOT_NAMED 1923-06-14 22:00:00 NR 8.00000 138.000 main 1010 1007 __________O___ -1 8.00000 138.000 2 9 302
1923164N07143 1923 35 WP MM NOT_NAMED 1923-06-15 00:00:00 NR 8.16873 137.736 main 1024 1021 __________P___ -1 8.16873 137.736 2 10 305
1923164N07143 1923 35 WP MM NOT_NAMED 1923-06-15 03:00:00 NR 8.45337 137.340 main 1048 1046 __________P___ -1 8.45337 137.340 2 10 307
1923164N07143 1923 35 WP MM NOT_NAMED 1923-06-15 06:00:00 NR 8.76476 136.941 main 1074 1074 __________P___ -1 8.76476 136.941 2 10 309
1923164N07143 1923 35 WP MM NOT_NAMED 1923-06-15 09:00:00 NR 9.09043 136.537 main 1101 1091 __________P___ -1 9.09043 136.537 2 10 309
1923164N07143 1923 35 WP MM NOT_NAMED 1923-06-15 10:00:00 NR 9.20000 136.400 main 1091 1062 __________O___ -1 9.20000 136.400 2 10 308
1923164N07143 1923 35 WP MM NOT_NAMED 1923-06-15 12:00:00 NR 9.40559 136.127 main 1062 1025 __________P___ -1 9.40559 136.127 2 10 307
1923164N07143 1923 35 WP MM NOT_NAMED 1923-06-15 15:00:00 NR 9.72022 135.712 main 1025 990 __________P___ -1 9.72022 135.712 2 11 308
1923164N07143 1923 35 WP MM NOT_NAMED 1923-06-15 18:00:00 NR 10.0452 135.287 main 990 949 __________P___ -1 10.0452 135.287 2 11 308
1923164N07143 1923 35 WP MM NOT_NAMED 1923-06-15 21:00:00 NR 10.3836 134.849 main 949 941 __________P___ -1 10.3836 134.849 2 11 308
1923164N07143 1923 35 WP MM NOT_NAMED 1923-06-15 22:00:00 NR 10.5000 134.700 main 941 913 __________O___ -1 10.5000 134.700 2 12 308
1923164N07143 1923 35 WP MM NOT_NAMED 1923-06-16 00:00:00 NR 10.7412 134.384 main 913 869 __________P___ -1 10.7412 134.384 2 12 308
1923164N07143 1923 35 WP MM NOT_NAMED 1923-06-16 03:00:00 NR 11.1158 133.898 main 869 829 __________P___ -1 11.1158 133.898 2 12 308
1923164N07143 1923 35 WP MM NOT_NAMED 1923-06-16 06:00:00 NR 11.4971 133.413 main 829 780 __________P___ -1 11.4971 133.413 2 12 309
1923164N07143 1923 35 WP MM NOT_NAMED 1923-06-16 09:00:00 NR 11.8759 132.947 main 780 771 __________P___ -1 11.8759 132.947 2 12 310
1923164N07143 1923 35 WP MM NOT_NAMED 1923-06-16 10:00:00 NR 12.0000 132.800 main 771 742 __________O___ -1 12.0000 132.800 2 11 312
1923164N07143 1923 35 WP MM NOT_NAMED 1923-06-16 12:00:00 NR 12.2440 132.529 main 742 709 __________P___ -1 12.2440 132.529 2 11 314
1923164N07143 1923 35 WP MM NOT_NAMED 1923-06-16 15:00:00 NR 12.6040 132.149 main 709 686 __________P___ -1 12.6040 132.149 2 10 314
1923164N07143 1923 35 WP MM NOT_NAMED 1923-06-16 18:00:00 NR 12.9541 131.786 main 689 651 __________P___ -1 12.9541 131.786 2 10 314
1923164N07143 1923 35 WP MM NOT_NAMED 1923-06-16 21:00:00 NR 13.2911 131.423 main 651 643 __________P___ -1 13.2911 131.423 2 10 313
1923164N07143 1923 35 WP MM NOT_NAMED 1923-06-16 22:00:00 NR 13.4000 131.300 main 643 616 __________O___ -1 13.4000 131.300 2 10 309
1923164N07143 1923 35 WP MM NOT_NAMED 1923-06-17 00:00:00 NR 13.5983 131.031 main 616 584 __________P___ -1 13.5983 131.031 2 10 306
1923164N07143 1923 35 WP MM NOT_NAMED 1923-06-17 03:00:00 NR 13.8829 130.621 main 584 556 __________P___ -1 13.8829 130.621 2 10 306
1923164N07143 1923 35 WP MM NOT_NAMED 1923-06-17 06:00:00 NR 14.1714 130.214 main 556 531 __________P___ -1 14.1714 130.214 2 10 308
1923164N07143 1923 35 WP MM NOT_NAMED 1923-06-17 09:00:00 NR 14.4857 129.824 main 531 528 __________P___ -1 14.4857 129.824 2 10 311
1923164N07143 1923 35 WP MM NOT_NAMED 1923-06-17 10:00:00 NR 14.6000 129.700 main 528 521 __________O___ -1 14.6000 129.700 2 10 318
1923164N07143 1923 35 WP MM NOT_NAMED 1923-06-17 12:00:00 NR 14.8650 129.466 main 527 515 __________P___ -1 14.8650 129.466 2 11 322
1923164N07143 1923 35 WP MM NOT_NAMED 1923-06-17 15:00:00 NR 15.2946 129.134 main 521 514 __________P___ -1 15.2946 129.134 2 11 324
1923164N07143 1923 35 WP MM NOT_NAMED 1923-06-17 18:00:00 NR 15.7374 128.817 main 514 504 __________P___ -1 15.7374 128.817 2 11 325
1923164N07143 1923 35 WP MM NOT_NAMED 1923-06-17 21:00:00 NR 16.1655 128.505 main 510 506 __________P___ -1 16.1655 128.505 2 10 325
1923164N07143 1923 35 WP MM NOT_NAMED 1923-06-17 22:00:00 NR 16.3000 128.400 main 506 501 __________O___ -1 16.3000 128.400 2 10 320
1923164N07143 1923 35 WP MM NOT_NAMED 1923-06-18 00:00:00 NR 16.5368 128.178 main 501 495 __________P___ -1 16.5368 128.178 2 9 317
1923164N07143 1923 35 WP MM NOT_NAMED 1923-06-18 03:00:00 NR 16.8668 127.844 main 495 495 __________P___ -1 16.8668 127.844 2 9 316
1923164N07143 1923 35 WP MM NOT_NAMED 1923-06-18 06:00:00 NR 17.1804 127.517 main 495 488 __________P___ -1 17.1804 127.517 2 9 316
1923164N07143 1923 35 WP MM NOT_NAMED 1923-06-18 09:00:00 NR 17.4932 127.201 main 499 493 __________P___ -1 17.4932 127.201 2 9 317
1923164N07143 1923 35 WP MM NOT_NAMED 1923-06-18 10:00:00 NR 17.6000 127.100 main 493 475 __________O___ -1 17.6000 127.100 2 9 319
1923164N07143 1923 35 WP MM NOT_NAMED 1923-06-18 12:00:00 NR 17.8328 126.897 main 475 451 __________P___ -1 17.8328 126.897 2 9 321
1923164N07143 1923 35 WP MM NOT_NAMED 1923-06-18 15:00:00 NR 18.1885 126.606 main 454 422 __________P___ -1 18.1885 126.606 2 9 323
1923164N07143 1923 35 WP MM NOT_NAMED 1923-06-18 18:00:00 NR 18.5436 126.332 main 422 402 __________P___ -1 18.5436 126.332 2 9 325
1923164N07143 1923 35 WP MM NOT_NAMED 1923-06-18 21:00:00 NR 18.8888 126.079 main 404 393 __________P___ -1 18.8888 126.079 2 8 325
1923164N07143 1923 35 WP MM NOT_NAMED 1923-06-18 22:00:00 NR 19.0000 126.000 main 395 379 __________O___ -1 19.0000 126.000 3 8 326
1923164N07143 1923 35 WP MM NOT_NAMED 1923-06-19 00:00:00 NR 19.2086 125.849 main 379 368 __________P___ -1 19.2086 125.849 3 7 326
1923164N07143 1923 35 WP MM NOT_NAMED 1923-06-19 03:00:00 NR 19.5091 125.642 main 368 361 __________P___ -1 19.5091 125.642 3 7 328
1923164N07143 1923 35 WP MM NOT_NAMED 1923-06-19 06:00:00 NR 19.8027 125.450 main 361 361 __________P___ -1 19.8027 125.450 3 7 329
1923164N07143 1923 35 WP MM NOT_NAMED 1923-06-19 09:00:00 NR 20.0990 125.263 main 367 358 __________P___ -1 20.0990 125.263 3 7 329
1923164N07143 1923 35 WP MM NOT_NAMED 1923-06-19 10:00:00 NR 20.2000 125.200 main 364 362 __________O___ -1 20.2000 125.200 4 7 329
1923164N07143 1923 35 WP MM NOT_NAMED 1923-06-19 12:00:00 NR 20.4057 125.064 main 369 360 __________P___ -1 20.4057 125.064 4 7 329
1923164N07143 1923 35 WP MM NOT_NAMED 1923-06-19 15:00:00 NR 20.7204 124.860 main 374 367 __________P___ -1 20.7204 124.860 4 7 329
1923164N07143 1923 35 WP MM NOT_NAMED 1923-06-19 18:00:00 NR 21.0454 124.658 main 384 371 __________P___ -1 21.0454 124.658 4 8 331
1923164N07143 1923 35 WP MM NOT_NAMED 1923-06-19 21:00:00 NR 21.3837 124.463 main 371 356 __________P___ -1 21.3837 124.463 4 8 332
1923164N07143 1923 35 WP MM NOT_NAMED 1923-06-19 22:00:00 NR 21.5000 124.400 main 356 336 __________O___ -1 21.5000 124.400 4 8 333
1923164N07143 1923 35 WP MM NOT_NAMED 1923-06-20 00:00:00 NR 21.7359 124.270 main 336 298 __________P___ -1 21.7359 124.270 4 8 334
1923164N07143 1923 35 WP MM NOT_NAMED 1923-06-20 03:00:00 NR 22.1024 124.080 main 298 264 __________P___ -1 22.1024 124.080 4 8 336
1923164N07143 1923 35 WP MM NOT_NAMED 1923-06-20 06:00:00 NR 22.4812 123.904 main 264 236 __________P___ -1 22.4812 123.904 4 8 338
1923164N07143 1923 35 WP MM NOT_NAMED 1923-06-20 09:00:00 NR 22.8692 123.747 main 236 235 __________P___ -1 22.8692 123.747 4 8 340
1923164N07143 1923 35 WP MM NOT_NAMED 1923-06-20 10:00:00 NR 23.0000 123.700 main 235 218 __________O___ -1 23.0000 123.700 4 8 346
1923164N07143 1923 35 WP MM NOT_NAMED 1923-06-20 12:00:00 NR 23.2528 123.639 main 218 199 __________P___ -1 23.2528 123.639 4 8 349
1923164N07143 1923 35 WP MM NOT_NAMED 1923-06-20 15:00:00 NR 23.6383 123.567 main 199 171 __________P___ -1 23.6383 123.567 4 8 350
1923164N07143 1923 35 WP MM NOT_NAMED 1923-06-20 18:00:00 NR 24.0370 123.486 main 171 151 __________P___ -1 24.0370 123.486 4 8 347
1923164N07143 1923 35 WP MM NOT_NAMED 1923-06-20 21:00:00 NR 24.4552 123.359 main 151 138 __________P___ -1 24.4552 123.359 4 9 343
1923164N07143 1923 35 WP MM NOT_NAMED 1923-06-20 22:00:00 NR 24.6000 123.300 main 138 111 __________O___ -1 24.6000 123.300 4 10 335
1923164N07143 1923 35 WP MM NOT_NAMED 1923-06-21 00:00:00 NR 24.8972 123.133 main 111 87 __________P___ -1 24.8972 123.133 4 11 330
1923164N07143 1923 35 WP MM NOT_NAMED 1923-06-21 03:00:00 NR 25.3617 122.824 main 92 89 __________P___ -1 25.3617 122.824 4 11 328
1923164N07143 1923 35 WP MM NOT_NAMED 1923-06-21 06:00:00 NR 25.8429 122.475 main 102 108 __________P___ -1 25.8429 122.475 4 12 327
1923164N07143 1923 35 WP MM NOT_NAMED 1923-06-21 09:00:00 NR 26.3347 122.116 main 132 139 __________P___ -1 26.3347 122.116 4 12 327
1923164N07143 1923 35 WP MM NOT_NAMED 1923-06-21 10:00:00 NR 26.5000 122.000 main 150 133 __________O___ -1 26.5000 122.000 4 12 329
1923164N07143 1923 35 WP MM NOT_NAMED 1923-06-21 12:00:00 NR 26.8315 121.778 main 133 81 __________P___ -1 26.8315 121.778 4 12 330
1923164N07143 1923 35 WP MM NOT_NAMED 1923-06-21 15:00:00 NR 27.3306 121.468 main 81 29 __________P___ -1 27.3306 121.468 4 11 332
1923164N07143 1923 35 WP MM NOT_NAMED 1923-06-21 18:00:00 NR 27.8314 121.176 main 29 0 __________P___ -1 27.8314 121.176 4 11 333
1923164N07143 1923 35 WP MM NOT_NAMED 1923-06-21 21:00:00 NR 28.3329 120.894 main 0 0 __________P___ -1 28.3329 120.894 4 11 334
1923164N07143 1923 35 WP MM NOT_NAMED 1923-06-21 22:00:00 NR 28.5000 120.800 main 0 __________O___ -1 28.5000 120.800 4 11 334

デジタル台風データ・検索

IBTrACS Databaseについて

本データベースは、米国NOAAが公開する1842年以降の世界の熱帯低気圧のベストトラックデータアーカイブInternational Best Track Archive for Climate Stewardship (IBTrACS)を、ウェブで閲覧しやすい形式に変換したものです。

最終更新日:2021-12-03